createdAt,value
2019-02-11T00:02:11.522Z,0.80
2019-02-11T00:04:41.284Z,0.80
2019-02-11T00:07:11.072Z,1.40
2019-02-11T00:09:40.946Z,0.90
2019-02-11T00:12:10.741Z,0.72
2019-02-11T00:14:40.527Z,1.37
2019-02-11T00:17:10.389Z,1.20
2019-02-11T00:19:40.201Z,0.80
2019-02-11T00:22:10.045Z,0.70
2019-02-11T00:24:39.856Z,0.60
2019-02-11T00:27:09.753Z,0.90
2019-02-11T00:29:39.604Z,0.80
2019-02-11T00:32:09.361Z,0.80
2019-02-11T00:34:39.274Z,0.82
2019-02-11T00:37:09.122Z,0.90
2019-02-11T00:39:41.320Z,0.98
2019-02-11T00:42:11.109Z,0.90
2019-02-11T00:44:40.910Z,0.90
2019-02-11T00:47:10.669Z,0.90
2019-02-11T00:49:40.446Z,1.17
2019-02-11T00:52:10.249Z,1.02
2019-02-11T00:54:40.048Z,1.25
2019-02-11T00:57:09.823Z,0.98
2019-02-11T00:59:39.720Z,0.80
2019-02-11T01:02:09.545Z,1.20
2019-02-11T01:04:39.415Z,1.10
2019-02-11T01:07:09.602Z,0.85
2019-02-11T01:09:39.384Z,0.95
2019-02-11T01:12:09.165Z,1.30
2019-02-11T01:14:39.030Z,1.20
2019-02-11T01:17:08.818Z,0.95
2019-02-11T01:19:38.600Z,0.90
2019-02-11T01:22:09.651Z,1.00
2019-02-11T01:24:39.455Z,1.52
2019-02-11T01:27:09.333Z,1.15
2019-02-11T01:29:39.137Z,0.98
2019-02-11T01:32:09.257Z,1.05
2019-02-11T01:34:39.125Z,0.97
2019-02-11T01:37:09.086Z,1.10
2019-02-11T01:39:38.872Z,1.12
2019-02-11T01:42:08.710Z,0.90
2019-02-11T01:44:38.497Z,1.17
2019-02-11T01:47:08.311Z,1.10
2019-02-11T01:49:38.082Z,0.90
2019-02-11T01:52:07.890Z,0.90
2019-02-11T01:54:37.687Z,1.10
2019-02-11T01:57:08.547Z,1.50
2019-02-11T01:59:38.350Z,1.00
2019-02-11T02:02:08.113Z,1.03
2019-02-11T02:04:38.114Z,0.90
2019-02-11T02:07:07.974Z,0.95
2019-02-11T02:09:37.821Z,1.20
2019-02-11T02:12:07.601Z,0.82
2019-02-11T02:14:37.473Z,0.90
2019-02-11T02:17:07.250Z,0.80
2019-02-11T02:19:37.034Z,1.20
2019-02-11T02:22:06.821Z,0.95
2019-02-11T02:24:36.674Z,1.10
2019-02-11T02:27:06.452Z,0.90
2019-02-11T02:29:36.251Z,0.90
2019-02-11T02:32:06.018Z,0.80
2019-02-11T02:34:35.809Z,0.80
2019-02-11T02:37:05.669Z,0.90
2019-02-11T02:39:35.454Z,0.85
2019-02-11T02:42:05.226Z,0.88
2019-02-11T02:44:35.009Z,1.10
2019-02-11T02:47:04.769Z,0.80
2019-02-11T02:49:34.549Z,0.80
2019-02-11T02:52:04.504Z,0.80
2019-02-11T02:54:34.283Z,0.70
2019-02-11T02:57:04.290Z,0.88
2019-02-11T02:59:34.155Z,0.70
2019-02-11T03:02:04.441Z,0.70
2019-02-11T03:04:34.274Z,0.62
2019-02-11T03:07:04.058Z,0.75
2019-02-11T03:09:33.915Z,0.70
2019-02-11T03:12:03.789Z,0.70
2019-02-11T03:14:33.570Z,0.80
2019-02-11T03:17:03.499Z,0.80
2019-02-11T03:19:33.338Z,0.80
2019-02-11T03:22:03.229Z,0.80
2019-02-11T03:24:33.046Z,1.02
2019-02-11T03:27:02.844Z,1.40
2019-02-11T03:29:33.735Z,0.80
2019-02-11T03:32:03.575Z,1.00
2019-02-11T03:34:33.406Z,0.80
2019-02-11T03:37:03.630Z,0.70
2019-02-11T03:39:33.479Z,0.75
2019-02-11T03:42:03.378Z,0.80
2019-02-11T03:44:33.331Z,0.80
2019-02-11T03:47:03.148Z,0.80
2019-02-11T03:49:32.947Z,0.80
2019-02-11T03:52:02.748Z,1.00
2019-02-11T03:54:32.716Z,0.80
2019-02-11T03:57:02.474Z,0.90
2019-02-11T03:59:32.257Z,0.90
2019-02-11T04:02:02.045Z,1.57
2019-02-11T04:04:31.849Z,1.60
2019-02-11T04:07:01.609Z,0.90
2019-02-11T04:09:32.597Z,0.82
2019-02-11T04:12:02.379Z,1.42
2019-02-11T04:14:32.313Z,1.22
2019-02-11T04:17:02.162Z,1.10
2019-02-11T04:19:31.950Z,1.12
2019-02-11T04:22:06.569Z,1.10
2019-02-11T04:24:36.428Z,1.07
2019-02-11T04:27:06.270Z,1.00
2019-02-11T04:29:36.106Z,0.80
2019-02-11T04:32:05.891Z,1.05
2019-02-11T04:34:35.701Z,1.25
2019-02-11T04:37:05.575Z,0.90
2019-02-11T04:39:35.412Z,1.00
2019-02-11T04:42:05.309Z,1.70
2019-02-11T04:44:35.102Z,1.30
2019-02-11T04:47:05.018Z,1.20
2019-02-11T04:49:34.782Z,2.55
2019-02-11T04:52:04.580Z,1.80
2019-02-11T04:54:34.361Z,1.42
2019-02-11T04:57:04.180Z,2.25
2019-02-11T04:59:33.947Z,2.80
2019-02-11T05:02:03.792Z,2.72
2019-02-11T05:04:33.594Z,3.00
2019-02-11T05:07:03.486Z,4.07
2019-02-11T05:09:33.226Z,2.80
2019-02-11T05:12:03.114Z,4.20
2019-02-11T05:14:32.986Z,4.25
2019-02-11T05:17:02.745Z,3.40
2019-02-11T05:19:32.742Z,4.03
2019-02-11T05:22:02.515Z,3.98
2019-02-11T05:24:32.305Z,3.67
2019-02-11T05:27:02.124Z,4.58
2019-02-11T05:29:31.925Z,3.40
2019-02-11T05:32:01.739Z,4.75
2019-02-11T05:34:31.541Z,3.90
2019-02-11T05:37:01.341Z,4.60
2019-02-11T05:39:31.114Z,4.17
2019-02-11T05:42:00.885Z,4.22
2019-02-11T05:44:30.677Z,4.30
2019-02-11T05:47:00.583Z,3.90
2019-02-11T05:49:30.356Z,3.62
2019-02-11T05:52:00.271Z,4.65
2019-02-11T05:54:30.046Z,5.53
2019-02-11T05:56:59.934Z,4.00
2019-02-11T05:59:29.706Z,3.22
2019-02-11T06:01:59.592Z,3.12
2019-02-11T06:04:29.493Z,2.27
2019-02-11T06:06:59.302Z,4.85
2019-02-11T06:09:29.098Z,3.85
2019-02-11T06:11:58.861Z,3.17
2019-02-11T06:14:28.643Z,3.10
2019-02-11T06:16:58.466Z,3.55
2019-02-11T06:19:28.461Z,3.58
2019-02-11T06:21:58.245Z,2.40
2019-02-11T06:24:28.056Z,4.22
2019-02-11T06:26:58.033Z,4.30
2019-02-11T06:29:27.905Z,3.10
2019-02-11T06:31:57.714Z,2.75
2019-02-11T06:34:27.672Z,4.78
2019-02-11T06:36:57.490Z,2.77
2019-02-11T06:39:27.339Z,4.15
2019-02-11T06:42:00.212Z,3.27
2019-02-11T06:44:30.028Z,4.40
2019-02-11T06:46:59.860Z,4.75
2019-02-11T06:49:30.541Z,3.77
2019-02-11T06:52:00.423Z,3.10
2019-02-11T06:54:30.422Z,4.42
2019-02-11T06:57:00.300Z,3.02
2019-02-11T06:59:30.536Z,3.30
2019-02-11T07:02:00.609Z,5.17
2019-02-11T07:04:30.421Z,4.60
2019-02-11T07:07:00.307Z,3.90
2019-02-11T07:09:30.124Z,4.37
2019-02-11T07:11:59.985Z,4.67
2019-02-11T07:14:29.865Z,4.40
2019-02-11T07:16:59.703Z,5.87
2019-02-11T07:19:29.573Z,5.35
2019-02-11T07:21:59.345Z,6.50
2019-02-11T07:24:29.154Z,7.05
2019-02-11T07:26:58.987Z,5.08
2019-02-11T07:29:28.880Z,6.53
2019-02-11T07:31:58.836Z,7.12
2019-02-11T07:34:28.633Z,4.78
2019-02-11T07:36:58.496Z,6.40
2019-02-11T07:39:28.384Z,6.37
2019-02-11T07:42:12.084Z,6.40
2019-02-11T07:44:45.656Z,6.03
2019-02-11T07:47:15.482Z,7.13
2019-02-11T07:49:45.268Z,6.87
2019-02-11T07:52:15.062Z,6.37
2019-02-11T07:54:44.945Z,6.87
2019-02-11T07:57:14.783Z,6.47
2019-02-11T07:59:44.564Z,7.62
2019-02-11T08:02:14.447Z,6.22
2019-02-11T08:04:45.465Z,8.00
2019-02-11T08:07:15.269Z,7.40
2019-02-11T08:09:45.129Z,7.63
2019-02-11T08:12:14.946Z,9.25
2019-02-11T08:14:44.753Z,7.77
2019-02-11T08:17:14.735Z,8.68
2019-02-11T08:19:44.537Z,6.05
2019-02-11T08:22:14.419Z,7.53
2019-02-11T08:24:44.282Z,6.70
2019-02-11T08:27:14.108Z,7.35
2019-02-11T08:29:43.983Z,6.17
2019-02-11T08:32:13.887Z,5.97
2019-02-11T08:34:43.753Z,8.45
2019-02-11T08:37:14.767Z,7.83
2019-02-11T08:39:44.594Z,7.58
2019-02-11T08:42:14.455Z,6.78
2019-02-11T08:44:44.292Z,7.12
2019-02-11T08:47:14.093Z,7.72
2019-02-11T08:49:44.035Z,8.35
2019-02-11T08:52:13.926Z,7.97
2019-02-11T08:54:43.865Z,7.33
2019-02-11T08:57:13.701Z,8.50
2019-02-11T08:59:43.489Z,6.83
2019-02-11T09:02:13.330Z,5.83
2019-02-11T09:04:43.135Z,5.58
2019-02-11T09:07:13.059Z,8.03
2019-02-11T09:09:42.855Z,8.88
2019-02-11T09:12:12.720Z,6.42
2019-02-11T09:14:42.580Z,8.28
2019-02-11T09:17:12.471Z,5.80
2019-02-11T09:19:42.310Z,5.20
2019-02-11T09:22:12.196Z,6.80
2019-02-11T09:24:42.127Z,6.22
2019-02-11T09:27:12.030Z,7.80
2019-02-11T09:29:41.910Z,5.70
2019-02-11T09:32:11.737Z,6.05
2019-02-11T09:34:41.599Z,6.90
2019-02-11T09:37:11.460Z,6.08
2019-02-11T09:39:41.252Z,8.00
2019-02-11T09:42:11.669Z,5.97
2019-02-11T09:44:41.484Z,6.25
2019-02-11T09:47:11.320Z,6.45
2019-02-11T09:49:41.138Z,6.35
2019-02-11T09:52:11.015Z,6.85
2019-02-11T09:54:40.906Z,4.33
2019-02-11T09:57:10.902Z,7.35
2019-02-11T09:59:40.705Z,6.15
2019-02-11T10:02:10.525Z,6.05
2019-02-11T10:04:40.332Z,6.35
2019-02-11T10:07:10.250Z,7.83
2019-02-11T10:09:40.180Z,6.20
2019-02-11T10:12:10.035Z,5.73
2019-02-11T10:14:39.906Z,5.92
2019-02-11T10:17:09.794Z,8.57
2019-02-11T10:19:39.662Z,5.80
2019-02-11T10:22:09.497Z,6.90
2019-02-11T10:24:39.317Z,6.05
2019-02-11T10:27:09.207Z,6.27
2019-02-11T10:29:39.181Z,5.35
2019-02-11T10:32:08.962Z,7.05
2019-02-11T10:34:38.817Z,5.75
2019-02-11T10:37:08.698Z,6.55
2019-02-11T10:39:38.469Z,6.45
2019-02-11T10:42:08.322Z,7.17
2019-02-11T10:44:38.250Z,6.28
2019-02-11T10:47:08.188Z,6.97
2019-02-11T10:49:38.060Z,7.28
2019-02-11T10:52:10.613Z,5.20
2019-02-11T10:54:40.427Z,6.42
2019-02-11T10:57:10.294Z,7.22
2019-02-11T10:59:40.292Z,8.08
2019-02-11T11:02:10.148Z,4.90
2019-02-11T11:04:39.943Z,7.08
2019-02-11T11:07:09.822Z,7.73
2019-02-11T11:09:39.642Z,5.90
2019-02-11T11:12:09.517Z,6.83
2019-02-11T11:14:39.412Z,4.65
2019-02-11T11:17:09.241Z,4.70
2019-02-11T11:19:39.067Z,6.90
2019-02-11T11:22:09.149Z,7.70
2019-02-11T11:24:40.563Z,5.20
2019-02-11T11:27:10.395Z,6.42
2019-02-11T11:29:40.337Z,6.10
2019-02-11T11:32:10.551Z,6.53
2019-02-11T11:34:41.186Z,5.60
2019-02-11T11:37:11.025Z,6.60
2019-02-11T11:39:40.857Z,6.50
2019-02-11T11:42:10.638Z,5.92
2019-02-11T11:44:40.448Z,6.33
2019-02-11T11:47:10.243Z,6.23
2019-02-11T11:49:40.074Z,5.80
2019-02-11T11:52:09.869Z,5.92
2019-02-11T11:54:39.802Z,4.12
2019-02-11T11:57:09.699Z,8.80
2019-02-11T11:59:39.575Z,7.30
2019-02-11T12:02:09.373Z,4.73
2019-02-11T12:04:41.622Z,4.95
2019-02-11T12:07:11.426Z,5.92
2019-02-11T12:09:43.826Z,9.43
2019-02-11T12:12:13.403Z,6.63
2019-02-11T12:14:43.350Z,5.62
2019-02-11T12:17:13.126Z,6.45
2019-02-11T12:19:42.938Z,4.55
2019-02-11T12:22:13.413Z,5.92
2019-02-11T12:24:43.413Z,4.45
2019-02-11T12:27:13.373Z,4.22
2019-02-11T12:29:43.172Z,4.70
2019-02-11T12:32:13.010Z,5.10
2019-02-11T12:34:42.819Z,3.92
2019-02-11T12:37:12.628Z,5.40
2019-02-11T12:39:42.556Z,4.25
2019-02-11T12:42:12.444Z,4.85
2019-02-11T12:44:42.293Z,5.78
2019-02-11T12:47:15.110Z,5.65
2019-02-11T12:49:44.802Z,3.83
2019-02-11T12:52:17.005Z,4.55
2019-02-11T12:54:47.827Z,5.20
2019-02-11T12:57:17.651Z,4.60
2019-02-11T12:59:47.687Z,4.75
2019-02-11T13:02:17.531Z,4.72
2019-02-11T13:04:47.321Z,4.75
2019-02-11T13:07:17.131Z,4.22
2019-02-11T13:09:46.978Z,4.47
2019-02-11T13:12:16.883Z,4.30
2019-02-11T13:14:46.673Z,4.77
2019-02-11T13:17:32.799Z,3.77
2019-02-11T13:19:48.261Z,3.47
2019-02-11T13:22:18.045Z,5.10
2019-02-11T13:24:47.924Z,5.53
2019-02-11T13:27:17.677Z,3.72
2019-02-11T13:29:47.558Z,4.67
2019-02-11T13:32:17.392Z,4.95
2019-02-11T13:34:48.272Z,3.55
2019-02-11T13:37:18.177Z,4.97
2019-02-11T13:39:47.982Z,5.30
2019-02-11T13:42:17.767Z,3.87
2019-02-11T13:44:47.635Z,5.23
2019-02-11T13:47:17.509Z,2.63
2019-02-11T13:49:47.367Z,5.37
2019-02-11T13:52:17.257Z,7.40
2019-02-11T13:54:47.059Z,4.87
2019-02-11T13:57:16.842Z,3.58
2019-02-11T13:59:46.654Z,5.30
2019-02-11T14:02:16.717Z,4.67
2019-02-11T14:04:46.594Z,6.30
2019-02-11T14:07:16.423Z,5.37
2019-02-11T14:09:46.313Z,3.43
2019-02-11T14:12:16.087Z,3.50
2019-02-11T14:14:45.941Z,3.90
2019-02-11T14:17:15.807Z,3.73
2019-02-11T14:19:45.593Z,5.13
2019-02-11T14:22:15.445Z,3.80
2019-02-11T14:24:45.282Z,3.53
2019-02-11T14:27:15.204Z,5.40
2019-02-11T14:29:45.056Z,3.63
2019-02-11T14:32:15.046Z,2.23
2019-02-11T14:34:45.097Z,4.20
2019-02-11T14:37:14.998Z,5.50
2019-02-11T14:39:44.988Z,5.43
2019-02-11T14:42:15.590Z,3.63
2019-02-11T14:44:45.626Z,2.43
2019-02-11T14:47:15.505Z,3.03
2019-02-11T14:49:45.431Z,4.07
2019-02-11T14:52:15.386Z,3.53
2019-02-11T14:54:45.305Z,5.90
2019-02-11T14:57:16.199Z,2.63
2019-02-11T14:59:46.025Z,4.00
2019-02-11T15:02:15.941Z,3.17
2019-02-11T15:04:45.844Z,3.63
2019-02-11T15:07:15.669Z,6.73
2019-02-11T15:09:45.610Z,4.87
2019-02-11T15:12:15.501Z,4.27
2019-02-11T15:14:45.441Z,5.17
2019-02-11T15:17:15.308Z,4.50
2019-02-11T15:19:45.103Z,4.00
2019-02-11T15:22:14.913Z,3.70
2019-02-11T15:24:44.743Z,4.30
2019-02-11T15:27:17.357Z,4.80
2019-02-11T15:29:46.164Z,5.60
2019-02-11T15:32:15.919Z,4.73
2019-02-11T15:34:45.743Z,7.90
2019-02-11T15:37:15.634Z,4.93
2019-02-11T15:39:45.526Z,5.17
2019-02-11T15:42:15.355Z,3.40
2019-02-11T15:44:45.192Z,4.90
2019-02-11T15:47:14.949Z,3.80
2019-02-11T15:49:47.802Z,6.00
2019-02-11T15:52:17.749Z,3.13
2019-02-11T15:54:47.841Z,4.40
2019-02-11T15:57:17.634Z,3.93
2019-02-11T15:59:47.501Z,3.87
2019-02-11T16:02:17.389Z,3.90
2019-02-11T16:04:47.235Z,4.53
2019-02-11T16:07:17.018Z,4.10
2019-02-11T16:09:47.055Z,5.42
2019-02-11T16:12:16.863Z,4.28
2019-02-11T16:14:46.669Z,5.33
2019-02-11T16:17:16.562Z,4.72
2019-02-11T16:19:46.449Z,4.73
2019-02-11T16:22:16.269Z,5.00
2019-02-11T16:24:46.135Z,7.03
2019-02-11T16:27:15.954Z,5.80
2019-02-11T16:29:45.749Z,4.93
2019-02-11T16:32:15.568Z,7.20
2019-02-11T16:34:45.359Z,4.60
2019-02-11T16:37:15.155Z,5.37
2019-02-11T16:39:44.978Z,4.13
2019-02-11T16:42:14.878Z,5.87
2019-02-11T16:44:44.760Z,6.73
2019-02-11T16:47:14.670Z,3.87
2019-02-11T16:49:44.464Z,5.00
2019-02-11T16:52:14.485Z,5.77
2019-02-11T16:54:44.383Z,3.87
2019-02-11T16:57:15.358Z,6.93
2019-02-11T16:59:45.255Z,5.83
2019-02-11T17:02:15.046Z,4.30
2019-02-11T17:04:44.883Z,4.80
2019-02-11T17:07:14.763Z,4.43
2019-02-11T17:09:44.753Z,4.63
2019-02-11T17:12:14.578Z,5.93
2019-02-11T17:14:44.391Z,4.43
2019-02-11T17:17:14.478Z,4.87
2019-02-11T17:19:45.342Z,3.30
2019-02-11T17:22:15.254Z,3.37
2019-02-11T17:24:45.090Z,3.93
2019-02-11T17:27:14.987Z,5.67
2019-02-11T17:29:44.906Z,5.07
2019-02-11T17:32:14.850Z,6.80
2019-02-11T17:34:44.735Z,5.07
2019-02-11T17:37:14.678Z,4.50
2019-02-11T17:39:44.550Z,6.03
2019-02-11T17:42:16.168Z,5.20
2019-02-11T17:44:45.993Z,5.73
2019-02-11T17:47:16.006Z,4.77
2019-02-11T17:49:45.849Z,7.03
2019-02-11T17:52:15.748Z,5.20
2019-02-11T17:54:46.432Z,6.77
2019-02-11T17:57:16.289Z,6.35
2019-02-11T17:59:46.131Z,5.13
2019-02-11T18:02:16.329Z,6.12
2019-02-11T18:04:46.206Z,8.28
2019-02-11T18:07:16.082Z,6.42
2019-02-11T18:09:45.989Z,5.58
2019-02-11T18:12:16.066Z,6.03
2019-02-11T18:14:45.915Z,7.12
2019-02-11T18:17:18.044Z,6.53
2019-02-11T18:19:47.948Z,7.90
2019-02-11T18:22:17.910Z,7.35
2019-02-11T18:24:47.971Z,7.05
2019-02-11T18:27:19.401Z,5.70
2019-02-11T18:29:49.234Z,6.05
2019-02-11T18:32:19.150Z,8.53
2019-02-11T18:34:49.026Z,7.42
2019-02-11T18:37:19.012Z,7.08
2019-02-11T18:39:49.892Z,5.90
2019-02-11T18:42:19.861Z,6.87
2019-02-11T18:44:49.688Z,6.62
2019-02-11T18:47:19.554Z,7.43
2019-02-11T18:49:49.445Z,6.45
2019-02-11T18:52:19.312Z,5.80
2019-02-11T18:54:49.178Z,5.75
2019-02-11T18:57:19.251Z,8.35
2019-02-11T18:59:49.058Z,8.90
2019-02-11T19:02:18.926Z,6.50
2019-02-11T19:04:49.977Z,6.30
2019-02-11T19:07:20.071Z,7.47
2019-02-11T19:09:49.971Z,7.30
2019-02-11T19:12:19.895Z,8.25
2019-02-11T19:14:49.754Z,7.80
2019-02-11T19:17:19.573Z,9.03
2019-02-11T19:19:49.538Z,8.68
2019-02-11T19:22:19.591Z,8.80
2019-02-11T19:24:49.409Z,9.08
2019-02-11T19:27:19.411Z,10.53
2019-02-11T19:29:49.286Z,11.73
2019-02-11T19:32:19.283Z,11.08
2019-02-11T19:34:49.182Z,12.65
2019-02-11T19:37:19.064Z,11.88
2019-02-11T19:39:48.976Z,10.10
2019-02-11T19:42:18.928Z,12.30
2019-02-11T19:44:48.831Z,12.63
2019-02-11T19:47:18.719Z,13.28
2019-02-11T19:49:51.697Z,11.40
2019-02-11T19:52:20.380Z,12.00
2019-02-11T19:54:50.293Z,11.38
2019-02-11T19:57:20.198Z,14.60
2019-02-11T19:59:50.051Z,12.90
2019-02-11T20:02:19.879Z,11.18
2019-02-11T20:04:49.806Z,12.20
2019-02-11T20:07:19.758Z,13.20
2019-02-11T20:09:49.625Z,11.57
2019-02-11T20:12:19.500Z,10.05
2019-02-11T20:14:50.415Z,13.30
2019-02-11T20:17:21.703Z,11.63
2019-02-11T20:19:59.944Z,10.98
2019-02-11T20:22:23.223Z,11.90
2019-02-11T20:24:53.154Z,11.15
2019-02-11T20:27:23.052Z,8.40
2019-02-11T20:29:52.947Z,14.53
2019-02-11T20:32:22.786Z,15.58
2019-02-11T20:34:52.759Z,11.53
2019-02-11T20:37:23.261Z,14.30
2019-02-11T20:39:53.090Z,13.60
2019-02-11T20:42:23.022Z,14.55
2019-02-11T20:44:53.026Z,14.55
2019-02-11T20:47:23.003Z,17.00
2019-02-11T20:49:52.951Z,14.43
2019-02-11T20:52:22.854Z,14.78
2019-02-11T20:54:52.661Z,14.00
2019-02-11T20:57:22.703Z,14.18
2019-02-11T20:59:58.230Z,12.55
2019-02-11T21:02:28.063Z,11.15
2019-02-11T21:04:57.946Z,13.75
2019-02-11T21:07:27.909Z,16.32
2019-02-11T21:09:57.890Z,14.60
2019-02-11T21:12:27.861Z,15.95
2019-02-11T21:14:57.856Z,12.05
2019-02-11T21:17:27.894Z,14.13
2019-02-11T21:19:57.810Z,13.40
2019-02-11T21:22:27.714Z,12.63
2019-02-11T21:25:00.367Z,12.53
2019-02-11T21:27:30.871Z,12.23
2019-02-11T21:30:03.811Z,12.60
2019-02-11T21:32:33.710Z,12.93
2019-02-11T21:35:03.742Z,14.70
2019-02-11T21:37:33.584Z,14.55
2019-02-11T21:40:04.602Z,14.83
2019-02-11T21:42:34.494Z,14.70
2019-02-11T21:45:04.892Z,12.10
2019-02-11T21:47:34.800Z,11.85
2019-02-11T21:50:04.968Z,11.35
2019-02-11T21:52:34.928Z,15.00
2019-02-11T21:55:05.115Z,14.95
2019-02-11T21:57:34.957Z,14.10
2019-02-11T22:00:05.653Z,12.90
2019-02-11T22:02:35.481Z,14.33
2019-02-11T22:05:05.572Z,14.87
2019-02-11T22:07:35.382Z,15.10
2019-02-11T22:10:06.298Z,15.23
2019-02-11T22:12:36.060Z,16.37
2019-02-11T22:15:06.473Z,15.88
2019-02-11T22:17:36.360Z,12.82
2019-02-11T22:20:07.283Z,13.93
2019-02-11T22:22:37.089Z,14.10
2019-02-11T22:25:07.642Z,13.55
2019-02-11T22:27:37.437Z,17.80
2019-02-11T22:30:09.660Z,20.17
2019-02-11T22:32:39.466Z,15.45
2019-02-11T22:35:09.952Z,17.63
2019-02-11T22:37:40.167Z,12.95
2019-02-11T22:40:11.037Z,17.90
2019-02-11T22:42:40.874Z,16.12
2019-02-11T22:45:13.085Z,11.78
2019-02-11T22:47:42.971Z,16.75
2019-02-11T22:50:12.821Z,17.03
2019-02-11T22:52:42.613Z,14.80
2019-02-11T22:55:12.603Z,13.88
2019-02-11T22:57:42.464Z,17.52
2019-02-11T23:00:35.420Z,15.53
2019-02-11T23:03:06.502Z,13.85
2019-02-11T23:05:36.314Z,16.85
2019-02-11T23:08:06.125Z,14.15
2019-02-11T23:10:35.996Z,17.77
2019-02-11T23:13:05.849Z,15.30
2019-02-11T23:15:36.476Z,18.00
2019-02-11T23:18:09.301Z,16.15
2019-02-11T23:20:39.109Z,16.35
2019-02-11T23:23:08.926Z,12.97
2019-02-11T23:25:38.744Z,13.83
2019-02-11T23:28:08.582Z,17.45
2019-02-11T23:30:38.460Z,18.62
2019-02-11T23:33:08.305Z,13.35
2019-02-11T23:35:38.163Z,19.83
2019-02-11T23:38:07.957Z,16.00
2019-02-11T23:40:39.441Z,14.87
2019-02-11T23:43:09.232Z,16.10
2019-02-11T23:45:39.025Z,13.83
2019-02-11T23:48:18.245Z,15.72
2019-02-11T23:50:48.042Z,14.45
2019-02-11T23:53:17.917Z,14.50
2019-02-11T23:55:50.472Z,14.58
2019-02-11T23:58:19.274Z,15.13
